Terminal Aerodrome Forecast
Issued by NWS Huntsville, AL

Home | Current Version | Previous Version | Text Only | Print | Product List | Glossary On
Versions: 1 2 3 4 5 6 7 8 9 10 11 12 13 14 15 16 17 18 19 20 21 22 23 24 25 26 27 28
000
FTUS44 KHUN 261155 AAA
TAFHSV
TAF AMD
KHSV 261155Z 2612/2712 14006KT P6SM SCT005 BKN110
      TEMPO 2612/2614 BKN015
     FM261400 16008KT P6SM VCSH BKN025 BKN130
     FM261900 20010KT P6SM SHRA VCTS BKN025CB BKN150
     FM270200 16006KT P6SM FEW070 SCT250=

USA.gov is the U.S. government's official web portal to all federal, state and local government web resources and services.